Time;durP1;ratioP1;P1;durP2;ratioP2;P2;SDS_P1;SDS_P2;PMS_P1;PMS_P2;Temp;Humidity;BMP_temperature;BMP_pressure;BME280_temperature;BME280_humidity;BME280_pressure;Samples;Min_cycle;Max_cycle;Signal;HPM_P1;HPM_P2
2022/10/09 00:01:16;;;;;;;10.48;7.07;;;6.50;99.90;;;;;;5050944;28;20094;-73
2022/10/09 00:03:44;;;;;;;9.60;6.88;;;6.60;99.90;;;;;;5051882;28;20025;-72
2022/10/09 00:06:12;;;;;;;10.48;7.70;;;6.60;99.90;;;;;;5052005;28;20089;-72
2022/10/09 00:08:38;;;;;;;11.25;7.93;;;6.40;99.90;;;;;;5051845;28;20266;-73
2022/10/09 00:11:09;;;;;;;11.23;7.85;;;6.30;99.90;;;;;;5052025;28;20104;-71
2022/10/09 00:13:35;;;;;;;13.57;8.18;;;6.40;99.90;;;;;;5051820;28;20498;-72
2022/10/09 00:16:03;;;;;;;11.82;8.55;;;6.30;99.90;;;;;;5051773;28;20098;-72
2022/10/09 00:18:29;;;;;;;8.35;7.45;;;6.20;99.90;;;;;;5051793;28;20021;-71
2022/10/09 00:20:54;;;;;;;11.55;9.25;;;6.20;99.90;;;;;;5043584;28;20383;-72
2022/10/09 00:23:20;;;;;;;12.57;8.20;;;6.10;99.90;;;;;;5031630;28;20029;-72
2022/10/09 00:25:54;;;;;;;13.63;9.13;;;5.90;99.90;;;;;;5031939;28;20021;-72
2022/10/09 00:28:21;;;;;;;11.27;7.97;;;5.90;99.90;;;;;;5031557;28;20035;-72
2022/10/09 00:30:46;;;;;;;9.88;8.15;;;5.90;99.90;;;;;;5031658;28;20071;-71
2022/10/09 00:33:12;;;;;;;11.18;8.00;;;5.80;99.90;;;;;;5030303;28;20049;-72
2022/10/09 00:35:38;;;;;;;15.32;12.25;;;6.00;99.90;;;;;;5031571;28;20041;-72
2022/10/09 00:38:05;;;;;;;13.30;11.60;;;5.70;99.90;;;;;;5031372;28;20104;-72
2022/10/09 00:40:30;;;;;;;16.92;12.43;;;5.40;99.90;;;;;;5031617;28;20029;-73
2022/10/09 00:42:57;;;;;;;10.85;9.73;;;5.50;99.90;;;;;;5031444;28;20029;-73
2022/10/09 00:45:22;;;;;;;10.23;8.55;;;5.40;99.90;;;;;;5031500;28;20037;-72
2022/10/09 00:47:53;;;;;;;8.38;7.53;;;5.50;99.90;;;;;;5029690;28;20029;-72
2022/10/09 00:50:24;;;;;;;13.88;9.57;;;5.50;99.90;;;;;;5031505;28;20022;-72
2022/10/09 00:52:54;;;;;;;11.93;8.93;;;5.60;99.90;;;;;;5031424;28;20503;-71
2022/10/09 00:55:21;;;;;;;15.43;10.07;;;5.70;99.90;;;;;;5030073;28;20033;-72
2022/10/09 00:57:47;;;;;;;13.98;10.57;;;5.70;99.90;;;;;;5031620;28;20021;-72
2022/10/09 01:00:13;;;;;;;15.15;11.65;;;5.70;99.90;;;;;;5049994;28;20025;-72
2022/10/09 01:02:39;;;;;;;15.57;11.13;;;5.70;99.90;;;;;;5051216;28;20056;-72
2022/10/09 01:05:07;;;;;;;13.75;9.52;;;5.60;99.90;;;;;;5051265;28;20055;-72
2022/10/09 01:07:50;;;;;;;13.25;9.15;;;5.60;99.90;;;;;;5049736;28;20028;-72
2022/10/09 01:10:44;;;;;;;9.82;8.60;;;5.60;99.90;;;;;;5027447;28;20079;-72
2022/10/09 01:13:19;;;;;;;13.80;8.50;;;5.60;99.90;;;;;;5026085;28;20045;-72
2022/10/09 01:16:24;;;;;;;11.35;8.32;;;5.50;99.90;;;;;;5031073;28;20044;-72
2022/10/09 01:19:20;;;;;;;9.15;7.95;;;5.50;99.90;;;;;;5015665;28;20041;-72
2022/10/09 01:21:59;;;;;;;10.63;7.87;;;5.50;99.90;;;;;;5034851;28;20133;-72
2022/10/09 01:24:30;;;;;;;8.60;7.45;;;5.50;99.90;;;;;;5037051;28;20025;-72
2022/10/09 01:27:17;;;;;;;8.80;7.55;;;5.50;99.90;;;;;;5030873;28;20025;-73
2022/10/09 01:29:47;;;;;;;10.02;8.10;;;5.60;99.90;;;;;;5031083;28;20434;-73
2022/10/09 01:32:20;;;;;;;10.13;8.20;;;5.70;99.90;;;;;;5031117;28;20036;-73
2022/10/09 01:34:46;;;;;;;15.10;10.98;;;5.70;99.90;;;;;;5031071;28;20562;-73
2022/10/09 01:37:14;;;;;;;20.00;15.13;;;5.50;99.90;;;;;;5030754;28;20057;-72
2022/10/09 01:39:41;;;;;;;29.58;15.10;;;4.80;99.90;;;;;;5031002;28;20119;-73
2022/10/09 01:42:08;;;;;;;15.68;12.90;;;4.70;99.90;;;;;;5030923;28;20391;-72
2022/10/09 01:44:34;;;;;;;10.05;8.15;;;4.70;99.90;;;;;;5031013;28;20028;-72
2022/10/09 01:46:59;;;;;;;9.20;8.20;;;4.80;99.90;;;;;;5030925;28;20026;-72
2022/10/09 01:49:37;;;;;;;10.35;8.55;;;4.90;99.90;;;;;;5030854;28;20030;-72
2022/10/09 01:52:22;;;;;;;10.60;8.90;;;4.90;99.90;;;;;;5028519;28;20108;-72
2022/10/09 01:55:05;;;;;;;10.38;8.32;;;4.80;99.90;;;;;;5021123;28;20057;-72
2022/10/09 01:57:47;;;;;;;9.60;8.57;;;5.00;99.90;;;;;;5027620;28;20017;-72
2022/10/09 02:00:13;;;;;;;10.77;7.97;;;5.00;99.90;;;;;;5052906;28;20028;-72
2022/10/09 02:02:41;;;;;;;11.63;10.05;;;5.10;99.90;;;;;;5054238;28;20021;-72
2022/10/09 02:05:10;;;;;;;11.35;8.18;;;5.10;99.90;;;;;;5054330;28;20442;-72
2022/10/09 02:07:36;;;;;;;11.50;8.90;;;5.30;99.90;;;;;;5053979;28;20031;-72
2022/10/09 02:10:04;;;;;;;12.70;9.35;;;5.30;99.90;;;;;;5052162;28;20108;-73
2022/10/09 02:12:33;;;;;;;14.90;9.68;;;5.40;99.90;;;;;;5032741;28;20475;-73
2022/10/09 02:14:59;;;;;;;13.98;10.77;;;5.40;99.90;;;;;;5034094;28;20091;-73
2022/10/09 02:17:32;;;;;;;14.68;10.00;;;5.50;99.90;;;;;;5033942;28;20281;-73
2022/10/09 02:20:11;;;;;;;13.82;10.35;;;5.40;99.90;;;;;;5034241;28;20033;-72
2022/10/09 02:22:37;;;;;;;11.23;10.02;;;5.20;99.90;;;;;;5034040;28;20034;-73
2022/10/09 02:25:05;;;;;;;13.90;10.82;;;4.70;99.90;;;;;;5029124;28;20029;-73
2022/10/09 02:27:32;;;;;;;9.20;7.40;;;4.60;99.90;;;;;;5033580;28;20387;-73
2022/10/09 02:29:59;;;;;;;9.27;7.97;;;4.70;99.90;;;;;;5033918;28;20021;-72
2022/10/09 02:32:24;;;;;;;9.80;8.43;;;4.70;99.90;;;;;;5032488;28;20036;-73
2022/10/09 02:34:51;;;;;;;13.88;10.05;;;4.80;99.90;;;;;;5033619;28;20124;-73
2022/10/09 02:37:17;;;;;;;13.05;9.40;;;4.70;99.90;;;;;;5033509;28;20017;-72
2022/10/09 02:39:43;;;;;;;10.70;9.48;;;4.70;99.90;;;;;;5033488;28;20531;-73
2022/10/09 02:42:09;;;;;;;11.95;9.10;;;4.50;99.90;;;;;;5033613;28;20028;-72
2022/10/09 02:44:34;;;;;;;12.32;8.45;;;4.60;99.90;;;;;;5033585;28;20025;-72
2022/10/09 02:47:00;;;;;;;75.43;14.43;;;4.80;99.90;;;;;;5033350;28;20036;-72
2022/10/09 02:49:25;;;;;;;123.97;15.00;;;4.90;99.90;;;;;;5033429;28;20025;-73
2022/10/09 02:51:51;;;;;;;183.90;16.48;;;4.80;99.90;;;;;;5032139;28;20475;-73
2022/10/09 02:54:17;;;;;;;37.75;11.52;;;4.70;99.90;;;;;;5033315;28;20033;-72
2022/10/09 02:56:42;;;;;;;218.90;21.75;;;5.00;99.90;;;;;;5024711;28;20029;-72
2022/10/09 02:59:08;;;;;;;66.15;11.95;;;4.90;99.90;;;;;;5050601;28;20040;-73
2022/10/09 03:01:34;;;;;;;35.58;7.70;;;4.90;99.90;;;;;;5053204;28;20467;-73
2022/10/09 03:03:59;;;;;;;12.07;7.80;;;4.80;99.90;;;;;;5038551;28;20075;-72
2022/10/09 03:06:26;;;;;;;19.23;9.90;;;4.90;99.90;;;;;;5051918;28;20031;-72
2022/10/09 03:08:52;;;;;;;12.80;11.10;;;4.70;99.90;;;;;;5045844;28;20064;-73
2022/10/09 03:11:19;;;;;;;16.08;11.38;;;4.60;99.90;;;;;;5031740;28;20021;-72
2022/10/09 03:13:45;;;;;;;10.95;9.85;;;4.60;99.90;;;;;;5031685;28;20372;-72
2022/10/09 03:16:14;;;;;;;10.45;9.30;;;4.40;99.90;;;;;;5033000;28;20093;-73
2022/10/09 03:18:40;;;;;;;16.02;12.25;;;4.40;99.90;;;;;;5032788;28;20029;-73
2022/10/09 03:21:10;;;;;;;12.00;9.82;;;4.50;99.90;;;;;;5031695;28;20360;-73
2022/10/09 03:23:36;;;;;;;9.98;8.82;;;4.50;99.90;;;;;;5018628;28;20017;-73
2022/10/09 03:26:05;;;;;;;9.50;8.50;;;4.60;99.90;;;;;;5032745;28;20025;-73
2022/10/09 03:28:33;;;;;;;121.00;17.55;;;4.70;99.90;;;;;;5031484;28;20029;-72
2022/10/09 03:30:59;;;;;;;68.78;14.07;;;4.70;99.90;;;;;;5032750;28;20025;-72
2022/10/09 03:33:25;;;;;;;22.83;12.85;;;4.70;99.90;;;;;;5031464;28;20032;-72
2022/10/09 03:35:50;;;;;;;39.40;15.00;;;4.70;99.90;;;;;;5033759;28;20029;-72
2022/10/09 03:38:16;;;;;;;24.13;11.75;;;4.70;99.90;;;;;;5052349;28;20074;-72
2022/10/09 03:40:42;;;;;;;17.75;12.85;;;4.60;99.90;;;;;;5051139;28;20112;-72
2022/10/09 03:43:08;;;;;;;10.40;8.60;;;4.40;99.90;;;;;;5051194;28;20021;-72
2022/10/09 03:45:34;;;;;;;12.57;9.90;;;4.50;99.90;;;;;;5052330;28;20027;-73
2022/10/09 03:48:00;;;;;;;10.32;9.32;;;4.40;99.90;;;;;;5052350;28;20021;-73
2022/10/09 03:50:25;;;;;;;8.63;7.28;;;4.30;99.90;;;;;;5037642;28;20497;-73
2022/10/09 03:52:51;;;;;;;8.10;7.35;;;4.30;99.90;;;;;;5032298;28;20262;-73
2022/10/09 03:55:16;;;;;;;13.77;9.13;;;4.40;99.90;;;;;;5032373;28;20033;-73
2022/10/09 03:57:42;;;;;;;54.60;14.13;;;4.50;99.90;;;;;;5030620;28;20031;-74
2022/10/09 04:00:09;;;;;;;45.50;15.63;;;4.20;99.90;;;;;;5050827;28;20032;-71
2022/10/09 04:02:34;;;;;;;9.80;8.30;;;3.80;99.90;;;;;;5050734;28;20500;-73
2022/10/09 04:05:00;;;;;;;37.22;15.05;;;3.70;99.90;;;;;;5050597;28;20108;-73
2022/10/09 04:07:26;;;;;;;64.03;14.60;;;3.60;99.90;;;;;;5030628;28;20060;-73
2022/10/09 04:09:51;;;;;;;276.80;24.83;;;3.30;99.90;;;;;;5031950;28;20083;-73
2022/10/09 04:12:17;;;;;;;216.82;25.15;;;3.20;99.90;;;;;;5030745;28;20059;-73
2022/10/09 04:14:42;;;;;;;101.72;17.70;;;3.00;99.90;;;;;;5031926;28;20025;-74
2022/10/09 04:17:08;;;;;;;30.63;11.82;;;3.00;99.90;;;;;;5032183;28;20567;-71
2022/10/09 04:19:34;;;;;;;9.23;8.32;;;3.10;99.90;;;;;;5030565;28;20077;-72
2022/10/09 04:21:59;;;;;;;12.27;10.88;;;3.20;99.90;;;;;;5031230;28;20024;-71
2022/10/09 04:24:25;;;;;;;14.45;11.82;;;3.30;99.90;;;;;;5032522;28;20134;-72
2022/10/09 04:26:50;;;;;;;11.98;8.32;;;3.40;99.90;;;;;;5051519;28;20100;-73
2022/10/09 04:29:16;;;;;;;11.82;8.55;;;3.40;99.90;;;;;;5051646;28;20052;-72
2022/10/09 04:31:42;;;;;;;30.67;19.52;;;3.60;99.90;;;;;;5050280;28;20098;-72
2022/10/09 04:34:08;;;;;;;77.68;53.00;;;3.80;99.90;;;;;;5051366;28;20037;-72
2022/10/09 04:36:33;;;;;;;124.55;19.20;;;3.90;99.90;;;;;;5051613;28;20024;-72
2022/10/09 04:38:59;;;;;;;56.85;15.48;;;3.90;99.90;;;;;;5051196;28;20029;-73
2022/10/09 04:41:24;;;;;;;75.72;16.83;;;4.00;99.90;;;;;;5051588;28;20494;-73
2022/10/09 04:43:54;;;;;;;56.53;12.93;;;4.00;99.90;;;;;;5050138;28;20383;-72
2022/10/09 04:46:20;;;;;;;65.80;12.77;;;3.90;99.90;;;;;;5050319;28;20021;-72
2022/10/09 04:48:47;;;;;;;33.25;10.80;;;4.10;99.90;;;;;;5050179;28;20033;-72
2022/10/09 04:51:14;;;;;;;54.60;12.32;;;4.00;99.90;;;;;;5031611;28;20025;-72
2022/10/09 04:53:40;;;;;;;103.05;14.63;;;4.10;99.90;;;;;;5031324;28;20550;-72
2022/10/09 04:56:11;;;;;;;98.28;14.57;;;4.10;99.90;;;;;;5029125;28;20121;-72
2022/10/09 04:58:39;;;;;;;274.80;24.70;;;4.00;99.90;;;;;;5042290;28;20067;-73
2022/10/09 05:01:20;;;;;;;152.77;14.43;;;4.00;99.90;;;;;;5051391;28;20024;-74
2022/10/09 05:03:46;;;;;;;237.73;20.60;;;3.90;99.90;;;;;;5051256;28;20036;-72
2022/10/09 05:06:13;;;;;;;172.45;16.02;;;3.70;99.90;;;;;;5042467;28;20053;-72
2022/10/09 05:08:41;;;;;;;146.55;14.70;;;3.70;99.90;;;;;;5028992;28;20033;-73
2022/10/09 05:11:09;;;;;;;135.50;15.32;;;3.70;99.90;;;;;;5022013;28;20057;-73
2022/10/09 05:13:38;;;;;;;43.35;10.88;;;3.60;99.90;;;;;;5030014;28;20029;-74
2022/10/09 05:16:06;;;;;;;23.75;7.68;;;3.60;99.90;;;;;;5031202;28;20072;-73
2022/10/09 05:18:32;;;;;;;127.32;18.15;;;3.60;99.90;;;;;;5031175;28;20029;-73
2022/10/09 05:20:58;;;;;;;163.20;24.77;;;3.50;99.90;;;;;;5031285;28;20026;-73
2022/10/09 05:23:24;;;;;;;103.43;14.38;;;3.40;99.90;;;;;;5054752;23;21166;-75
2022/10/09 05:25:58;;;;;;;114.63;25.80;;;3.50;99.90;;;;;;5031755;28;20045;-75
2022/10/09 05:28:23;;;;;;;105.35;20.75;;;3.50;99.90;;;;;;5016952;28;20029;-75
2022/10/09 05:30:49;;;;;;;73.45;23.95;;;3.50;99.90;;;;;;5030931;28;20025;-74
2022/10/09 05:33:15;;;;;;;39.42;21.27;;;3.50;99.90;;;;;;5019897;28;20022;-75
2022/10/09 05:35:48;;;;;;;29.27;18.50;;;3.40;99.90;;;;;;5014353;28;20030;-75
2022/10/09 05:38:13;;;;;;;17.42;13.02;;;3.40;99.90;;;;;;5027138;28;20030;-75
2022/10/09 05:40:59;;;;;;;28.05;14.85;;;3.40;99.90;;;;;;5015207;28;20022;-74
2022/10/09 05:43:31;;;;;;;16.88;12.13;;;3.50;99.90;;;;;;5033554;28;20057;-76
2022/10/09 05:46:07;;;;;;;29.15;12.32;;;3.50;99.90;;;;;;5029312;28;20029;-74
2022/10/09 05:48:33;;;;;;;36.45;10.52;;;3.50;99.90;;;;;;5033388;28;20029;-75
2022/10/09 05:51:07;;;;;;;9.02;8.18;;;3.40;99.90;;;;;;5030873;28;20529;-75
2022/10/09 05:53:32;;;;;;;80.80;9.95;;;3.50;99.90;;;;;;5034170;28;20025;-75
2022/10/09 05:56:09;;;;;;;206.60;18.25;;;3.70;99.90;;;;;;5020200;28;20144;-75
2022/10/09 05:58:34;;;;;;;162.73;18.08;;;3.50;99.90;;;;;;5029912;28;20474;-75
2022/10/09 06:01:00;;;;;;;102.88;13.98;;;3.50;99.90;;;;;;5019925;28;20053;-75
2022/10/09 06:03:25;;;;;;;216.63;14.60;;;3.60;99.90;;;;;;5032972;28;20079;-75
2022/10/09 06:05:51;;;;;;;66.05;10.32;;;3.60;99.90;;;;;;5029435;28;20494;-75
2022/10/09 06:08:16;;;;;;;75.43;14.65;;;3.70;99.90;;;;;;5027587;28;20021;-75
2022/10/09 06:10:42;;;;;;;84.15;11.63;;;3.70;99.90;;;;;;5026972;28;20030;-75
2022/10/09 06:13:07;;;;;;;92.18;11.30;;;3.70;99.90;;;;;;5014429;28;20033;-75
2022/10/09 06:15:33;;;;;;;11.20;6.10;;;3.80;99.90;;;;;;5013134;28;20033;-75
2022/10/09 06:17:58;;;;;;;20.70;7.53;;;3.90;99.90;;;;;;5012989;28;20049;-75
2022/10/09 06:20:24;;;;;;;8.23;6.38;;;4.00;99.90;;;;;;5014626;28;20411;-75
2022/10/09 06:22:50;;;;;;;7.13;6.53;;;4.00;99.90;;;;;;5032879;28;20029;-75
2022/10/09 06:25:15;;;;;;;10.63;7.85;;;4.00;99.90;;;;;;5033940;28;20115;-76
2022/10/09 06:27:41;;;;;;;9.00;8.20;;;4.20;99.90;;;;;;5032515;28;20108;-74
2022/10/09 06:30:07;;;;;;;6.70;6.07;;;4.40;99.90;;;;;;5026557;28;20484;-75
2022/10/09 06:32:33;;;;;;;7.90;7.25;;;4.40;99.90;;;;;;5026058;28;20430;-75
2022/10/09 06:34:58;;;;;;;10.02;9.13;;;4.40;99.90;;;;;;5026120;28;20022;-76
2022/10/09 06:37:24;;;;;;;9.35;8.55;;;4.20;99.90;;;;;;5023134;28;20471;-75
2022/10/09 06:39:49;;;;;;;9.38;8.48;;;4.10;99.90;;;;;;5030249;28;20025;-76
2022/10/09 06:42:16;;;;;;;7.80;7.07;;;4.20;99.90;;;;;;5027657;28;20026;-76
2022/10/09 06:44:43;;;;;;;11.20;10.18;;;4.30;99.90;;;;;;5031577;28;20428;-75
2022/10/09 06:47:08;;;;;;;9.77;8.77;;;4.30;99.90;;;;;;5033568;28;20065;-75
2022/10/09 06:49:34;;;;;;;8.38;7.68;;;4.50;99.90;;;;;;5022838;28;20049;-76
2022/10/09 06:51:59;;;;;;;7.53;6.93;;;4.50;99.90;;;;;;5032571;28;20017;-75
2022/10/09 06:54:25;;;;;;;6.70;6.10;;;4.50;99.90;;;;;;5014116;28;20038;-76
2022/10/09 06:56:53;;;;;;;7.88;7.07;;;4.60;99.90;;;;;;5019739;28;20026;-75
2022/10/09 06:59:18;;;;;;;8.30;7.53;;;4.60;99.90;;;;;;5020711;28;20471;-75
2022/10/09 07:01:44;;;;;;;7.38;6.65;;;4.60;99.90;;;;;;5025221;28;20087;-76
2022/10/09 07:04:13;;;;;;;8.18;7.38;;;4.80;99.90;;;;;;5020663;28;20030;-76
2022/10/09 07:06:41;;;;;;;8.27;6.75;;;4.90;99.90;;;;;;5026573;28;20092;-75
2022/10/09 07:09:10;;;;;;;7.70;7.10;;;5.00;99.90;;;;;;5023282;28;20558;-75
2022/10/09 07:11:41;;;;;;;8.45;7.63;;;5.20;99.90;;;;;;5027872;28;20038;-76
2022/10/09 07:14:08;;;;;;;7.88;7.13;;;5.10;99.90;;;;;;5021909;28;20030;-76
2022/10/09 07:16:37;;;;;;;9.05;8.10;;;5.20;99.90;;;;;;5031312;28;20033;-75
2022/10/09 07:19:06;;;;;;;11.38;10.18;;;5.40;99.90;;;;;;5031656;28;20029;-76
2022/10/09 07:21:33;;;;;;;10.50;9.43;;;5.50;99.90;;;;;;5031688;28;20022;-75
2022/10/09 07:23:59;;;;;;;9.93;9.02;;;5.60;99.90;;;;;;5031565;28;20487;-75
2022/10/09 07:26:26;;;;;;;11.45;10.25;;;5.70;99.90;;;;;;5031673;28;20029;-76
2022/10/09 07:28:52;;;;;;;9.77;8.85;;;5.80;99.90;;;;;;5032717;28;20166;-75
2022/10/09 07:31:18;;;;;;;8.90;8.00;;;5.90;99.90;;;;;;5031490;28;20028;-76
2022/10/09 07:33:51;;;;;;;10.60;9.55;;;5.90;99.90;;;;;;5024860;28;20104;-75
2022/10/09 07:36:17;;;;;;;9.57;8.57;;;6.10;99.90;;;;;;5013200;28;20026;-75
2022/10/09 07:38:43;;;;;;;8.18;7.38;;;6.10;99.90;;;;;;5024226;28;20482;-76
2022/10/09 07:41:11;;;;;;;10.10;9.10;;;6.20;99.90;;;;;;5032617;28;20033;-74
2022/10/09 07:43:39;;;;;;;10.70;9.70;;;6.30;99.90;;;;;;5020907;28;20026;-76
2022/10/09 07:46:07;;;;;;;10.00;9.13;;;6.30;99.90;;;;;;5025863;28;20038;-75
2022/10/09 07:48:33;;;;;;;10.30;8.35;;;6.40;99.90;;;;;;5024922;28;20382;-76
2022/10/09 07:51:10;;;;;;;10.50;9.50;;;6.50;99.90;;;;;;5031278;28;20041;-75
2022/10/09 07:53:36;;;;;;;11.02;9.90;;;6.60;99.90;;;;;;5031154;28;20095;-76
2022/10/09 07:56:03;;;;;;;10.45;9.38;;;6.70;99.90;;;;;;5032272;28;20029;-76
2022/10/09 07:58:29;;;;;;;10.77;8.57;;;6.90;99.90;;;;;;5029278;28;20053;-75
2022/10/09 08:00:54;;;;;;;10.00;9.07;;;7.00;99.90;;;;;;5012611;28;20061;-75
2022/10/09 08:03:20;;;;;;;9.10;8.20;;;7.20;99.90;;;;;;5024465;28;20072;-75
2022/10/09 08:05:53;;;;;;;9.20;8.25;;;7.30;99.90;;;;;;5016524;28;20296;-76
2022/10/09 08:08:19;;;;;;;9.60;8.70;;;7.40;99.90;;;;;;5019986;28;20454;-76
2022/10/09 08:10:44;;;;;;;9.27;8.45;;;7.50;99.90;;;;;;5022744;28;20045;-76
2022/10/09 08:13:10;;;;;;;9.30;8.50;;;7.60;99.90;;;;;;5010996;28;20022;-76
2022/10/09 08:15:40;;;;;;;8.43;7.57;;;7.60;99.90;;;;;;5019330;28;20394;-75
2022/10/09 08:18:05;;;;;;;8.55;7.45;;;7.80;99.90;;;;;;5030289;28;20520;-76
2022/10/09 08:20:31;;;;;;;8.75;7.28;;;7.90;99.90;;;;;;5032220;28;20060;-76
2022/10/09 08:22:56;;;;;;;10.20;7.13;;;8.10;99.90;;;;;;5028494;28;20021;-75
2022/10/09 08:25:22;;;;;;;8.27;7.50;;;8.30;99.90;;;;;;5011957;28;20056;-75
2022/10/09 08:27:51;;;;;;;8.65;7.05;;;8.40;99.90;;;;;;5013015;28;20475;-75
2022/10/09 08:30:16;;;;;;;7.78;6.80;;;8.50;99.90;;;;;;5022445;28;20022;-75
2022/10/09 08:32:42;;;;;;;8.98;6.65;;;8.60;99.90;;;;;;5025603;28;20028;-75
2022/10/09 08:35:07;;;;;;;7.10;6.40;;;8.70;99.90;;;;;;5023882;28;20025;-76
2022/10/09 08:37:33;;;;;;;7.25;6.50;;;8.80;99.90;;;;;;5011857;28;20026;-75
2022/10/09 08:39:58;;;;;;;8.32;6.18;;;9.00;99.90;;;;;;5022674;28;20377;-75
2022/10/09 08:42:46;;;;;;;6.80;4.63;;;9.20;99.90;;;;;;5012853;28;20029;-76
2022/10/09 08:45:16;;;;;;;5.97;3.42;;;9.50;99.90;;;;;;5021163;28;20529;-76
2022/10/09 08:47:56;;;;;;;5.07;3.10;;;9.80;99.90;;;;;;5016257;28;20111;-75
2022/10/09 08:50:27;;;;;;;5.47;3.50;;;10.00;99.90;;;;;;5031565;28;20491;-75
2022/10/09 08:53:27;;;;;;;7.63;3.50;;;10.10;99.90;;;;;;5031801;28;20380;-75
2022/10/09 08:55:56;;;;;;;6.72;2.92;;;10.20;99.90;;;;;;5031236;28;20025;-76
2022/10/09 08:58:25;;;;;;;7.47;3.65;;;10.30;99.90;;;;;;5018714;28;20561;-72
2022/10/09 09:01:14;;;;;;;8.10;3.22;;;10.40;99.90;;;;;;5011965;28;20030;-75
2022/10/09 09:03:55;;;;;;;8.95;3.30;;;10.50;99.90;;;;;;5027565;28;20034;-76
2022/10/09 09:06:47;;;;;;;5.60;3.03;;;10.50;99.90;;;;;;5019878;28;20038;-76
2022/10/09 09:09:29;;;;;;;5.32;2.80;;;10.60;99.90;;;;;;5013884;28;20127;-76
2022/10/09 09:12:08;;;;;;;7.47;2.95;;;10.60;99.90;;;;;;5018179;28;20030;-76
2022/10/09 09:14:46;;;;;;;5.88;2.90;;;10.70;99.90;;;;;;5030970;28;20021;-75
2022/10/09 09:17:25;;;;;;;5.95;3.20;;;11.10;99.90;;;;;;5031201;28;20125;-76
2022/10/09 09:20:07;;;;;;;6.50;3.35;;;11.00;99.90;;;;;;5019403;28;20030;-75
2022/10/09 09:22:34;;;;;;;8.65;5.10;;;11.10;99.90;;;;;;5023223;28;20112;-75
2022/10/09 09:25:06;;;;;;;10.98;4.50;;;11.00;99.90;;;;;;5023881;28;20029;-76
2022/10/09 09:27:35;;;;;;;5.60;2.90;;;11.10;99.90;;;;;;5015208;28;20033;-76
2022/10/09 09:30:23;;;;;;;4.35;2.85;;;11.20;99.90;;;;;;5013912;28;20505;-75
2022/10/09 09:33:13;;;;;;;7.90;3.70;;;11.50;99.90;;;;;;5013584;28;20069;-76
2022/10/09 09:36:07;;;;;;;3.55;2.72;;;11.50;99.90;;;;;;5015206;28;20026;-76
2022/10/09 09:38:34;;;;;;;5.15;2.60;;;11.50;99.90;;;;;;5014963;28;20054;-75
2022/10/09 09:41:00;;;;;;;7.85;2.85;;;11.70;99.90;;;;;;5015360;28;20025;-76
2022/10/09 09:43:26;;;;;;;4.40;3.05;;;11.60;99.90;;;;;;5014996;28;20506;-76
2022/10/09 09:45:57;;;;;;;6.20;3.00;;;11.60;99.90;;;;;;5030288;28;20034;-75
2022/10/09 09:48:25;;;;;;;7.35;3.20;;;11.70;99.90;;;;;;5033213;28;20076;-75
2022/10/09 09:50:52;;;;;;;4.78;1.85;;;11.80;99.90;;;;;;5033780;28;20087;-75
2022/10/09 09:53:30;;;;;;;4.45;2.30;;;12.20;99.90;;;;;;5023246;28;20022;-76
2022/10/09 09:55:56;;;;;;;4.75;3.03;;;12.10;99.90;;;;;;5033531;28;20036;-75
2022/10/09 09:58:31;;;;;;;4.10;2.75;;;12.10;99.90;;;;;;5026516;28;20053;-75
2022/10/09 10:01:02;;;;;;;3.42;2.40;;;12.10;99.90;;;;;;5014807;28;20025;-76
2022/10/09 10:03:29;;;;;;;4.60;2.17;;;12.20;99.90;;;;;;5013214;28;20558;-75
2022/10/09 10:05:55;;;;;;;3.15;2.00;;;12.30;99.90;;;;;;5014769;28;20468;-75
2022/10/09 10:08:29;;;;;;;4.82;1.98;;;12.60;99.90;;;;;;5027671;28;20033;-76
2022/10/09 10:10:58;;;;;;;3.05;1.90;;;12.50;99.90;;;;;;5014642;28;20065;-76
2022/10/09 10:13:45;;;;;;;3.92;1.80;;;12.40;99.90;;;;;;5018059;28;20060;-76
2022/10/09 10:16:23;;;;;;;3.70;1.88;;;12.50;99.90;;;;;;5032717;28;20022;-75
2022/10/09 10:18:49;;;;;;;3.65;2.05;;;12.50;99.90;;;;;;5033825;28;20025;-76
2022/10/09 10:21:17;;;;;;;7.88;2.13;;;12.60;99.90;;;;;;5024975;28;20045;-77
2022/10/09 10:23:59;;;;;;;3.95;1.85;;;12.60;99.90;;;;;;5032513;28;20462;-76
2022/10/09 10:26:49;;;;;;;3.00;1.60;;;12.70;99.90;;;;;;5032986;28;20026;-73
2022/10/09 10:29:19;;;;;;;4.03;1.92;;;12.80;99.90;;;;;;5032806;28;20619;-76
2022/10/09 10:32:22;;;;;;;4.50;1.70;;;12.80;99.90;;;;;;5034059;28;20025;-76
2022/10/09 10:35:05;;;;;;;5.25;2.08;;;12.80;99.90;;;;;;5033693;28;20038;-76
2022/10/09 10:37:41;;;;;;;3.15;1.63;;;12.90;99.90;;;;;;5025521;28;20030;-76
2022/10/09 10:40:41;;;;;;;4.35;2.22;;;13.10;99.90;;;;;;5014450;28;20383;-74
2022/10/09 10:43:13;;;;;;;2.83;1.90;;;13.10;99.90;;;;;;5020746;28;20018;-76
2022/10/09 10:45:53;;;;;;;4.15;2.20;;;13.10;99.90;;;;;;5020220;28;20100;-76
2022/10/09 10:48:25;;;;;;;2.80;1.50;;;13.30;99.90;;;;;;5022968;28;20022;-75
2022/10/09 10:51:19;;;;;;;3.75;1.60;;;13.30;99.90;;;;;;5033363;28;20028;-74
2022/10/09 10:54:17;;;;;;;4.13;1.42;;;13.50;99.90;;;;;;5029892;28;20049;-74
2022/10/09 10:57:00;;;;;;;3.10;1.50;;;13.40;99.90;;;;;;5015245;28;20072;-74
2022/10/09 10:59:39;;;;;;;4.38;1.80;;;13.40;99.90;;;;;;5033377;28;20034;-76
2022/10/09 11:02:14;;;;;;;6.32;1.60;;;13.40;99.90;;;;;;5029798;28;20026;-76
2022/10/09 11:05:28;;;;;;;2.78;1.33;;;13.60;99.90;;;;;;5012096;28;20026;-73
2022/10/09 11:08:05;;;;;;;2.35;1.15;;;13.60;99.90;;;;;;5025022;28;20048;-73
2022/10/09 11:11:09;;;;;;;3.10;1.25;;;13.70;99.90;;;;;;5031092;28;20025;-76
2022/10/09 11:13:48;;;;;;;4.35;1.63;;;13.80;99.90;;;;;;5029412;28;20694;-76
2022/10/09 11:16:41;;;;;;;4.28;1.40;;;13.90;99.90;;;;;;5017898;28;20076;-75
2022/10/09 11:19:10;;;;;;;2.22;1.23;;;13.90;99.90;;;;;;5013239;28;20022;-76
2022/10/09 11:22:01;;;;;;;3.47;1.42;;;13.90;99.90;;;;;;5011861;28;20061;-76
2022/10/09 11:25:12;;;;;;;2.17;1.52;;;13.80;99.90;;;;;;5012552;28;20302;-73
2022/10/09 11:28:02;;;;;;;2.33;1.40;;;13.80;99.90;;;;;;5031692;28;20104;-76
2022/10/09 11:30:51;;;;;;;4.50;1.65;;;14.00;99.90;;;;;;5045317;28;20391;-74
2022/10/09 11:33:27;;;;;;;2.67;1.60;;;14.00;99.90;;;;;;5012997;28;20048;-74
2022/10/09 11:36:05;;;;;;;;;;;14.10;99.90;;;;;;5027296;28;20040;-76
2022/10/09 11:38:36;;;;;;;2.28;1.50;;;14.30;99.90;;;;;;5032368;28;19905;-73
2022/10/09 11:41:04;;;;;;;1.85;1.50;;;14.60;99.90;;;;;;5031421;28;20022;-73
2022/10/09 11:44:07;;;;;;;5.30;1.58;;;14.90;99.90;;;;;;5032355;28;20024;-74
2022/10/09 11:47:09;;;;;;;3.45;1.55;;;15.50;99.90;;;;;;5031259;28;20104;-74
2022/10/09 11:50:17;;;;;;;3.33;1.38;;;16.70;99.90;;;;;;5032447;28;20511;-74
2022/10/09 11:53:08;;;;;;;2.97;1.60;;;17.40;99.90;;;;;;5005393;28;20049;-74
2022/10/09 11:55:35;;;;;;;1.95;1.25;;;17.70;99.90;;;;;;5025693;28;20101;-76
2022/10/09 11:58:19;;;;;;;3.20;1.35;;;17.90;99.90;;;;;;5018742;28;20096;-74
2022/10/09 12:00:49;;;;;;;3.80;1.50;;;18.00;99.90;;;;;;5011304;28;20033;-75
2022/10/09 12:03:33;;;;;;;3.25;1.48;;;18.40;99.90;;;;;;5011269;28;20022;-77
2022/10/09 12:06:14;;;;;;;2.65;1.38;;;18.50;99.90;;;;;;5020276;28;20025;-76
2022/10/09 12:09:06;;;;;;;1.65;1.40;;;19.10;99.90;;;;;;5031921;28;20608;-75
2022/10/09 12:11:33;;;;;;;3.50;1.30;;;20.00;99.90;;;;;;5025826;28;20080;-77
2022/10/09 12:14:01;;;;;;;2.50;1.33;;;20.30;99.90;;;;;;5012269;28;20022;-74
2022/10/09 12:16:40;;;;;;;1.80;1.40;;;19.20;99.90;;;;;;5025481;28;20030;-77
2022/10/09 12:19:17;;;;;;;2.60;1.50;;;18.50;99.90;;;;;;5012049;28;20030;-77
2022/10/09 12:22:06;;;;;;;3.08;1.25;;;18.00;99.90;;;;;;5012147;28;20034;-76
2022/10/09 12:24:40;;;;;;;2.00;1.20;;;17.10;99.90;;;;;;5010672;28;20033;-76
2022/10/09 12:27:06;;;;;;;4.18;1.40;;;17.00;99.90;;;;;;5011829;28;20053;-76
2022/10/09 12:29:44;;;;;;;2.22;1.20;;;17.40;99.90;;;;;;5011995;28;20021;-76
2022/10/09 12:32:21;;;;;;;3.30;1.67;;;17.60;99.90;;;;;;5012135;28;20022;-76
2022/10/09 12:34:49;;;;;;;3.40;1.20;;;18.00;99.90;;;;;;5011873;28;20384;-76
2022/10/09 12:37:20;;;;;;;4.07;1.40;;;18.80;99.90;;;;;;5011868;28;20083;-77
2022/10/09 12:39:48;;;;;;;2.22;1.33;;;19.50;99.90;;;;;;5011821;28;20033;-77
2022/10/09 12:42:22;;;;;;;5.07;1.70;;;19.30;99.90;;;;;;5012018;28;20030;-76
2022/10/09 12:44:52;;;;;;;3.88;1.40;;;19.60;99.90;;;;;;5019232;28;20054;-76
2022/10/09 12:47:27;;;;;;;2.42;1.60;;;20.20;99.90;;;;;;5031646;28;20021;-77
2022/10/09 12:49:59;;;;;;;2.70;1.70;;;21.20;99.90;;;;;;5030337;28;20029;-77
2022/10/09 12:52:25;;;;;;;3.53;1.50;;;21.80;99.90;;;;;;5031510;28;20272;-77
2022/10/09 12:54:51;;;;;;;1.50;1.40;;;20.70;99.90;;;;;;5031554;28;20391;-75
2022/10/09 12:57:17;;;;;;;1.75;1.40;;;21.40;99.90;;;;;;5019449;28;20026;-74
2022/10/09 12:59:44;;;;;;;2.17;1.67;;;21.40;99.90;;;;;;5011805;28;20037;-74
2022/10/09 13:02:14;;;;;;;3.58;1.60;;;21.50;99.90;;;;;;5011732;28;20053;-75
2022/10/09 13:04:40;;;;;;;3.15;1.40;;;22.20;99.90;;;;;;5011670;28;20373;-77
2022/10/09 13:07:15;;;;;;;3.13;1.63;;;21.80;99.90;;;;;;5010270;28;20563;-74